Time;durP1;ratioP1;P1;durP2;ratioP2;P2;SDS_P1;SDS_P2;PMS_P1;PMS_P2;Temp;Humidity;BMP_temperature;BMP_pressure;BME280_temperature;BME280_humidity;BME280_pressure;Samples;Min_cycle;Max_cycle;Signal;HPM_P1;HPM_P2
2023/02/10 00:01:40;;;;;;;50.75;29.52;;;;;;;;;;5036909;28;20214;-74
2023/02/10 00:04:08;;;;;;;51.65;29.17;;;;;;;;;;5026028;28;20226;-75
2023/02/10 00:06:35;;;;;;;61.60;31.48;;;;;;;;;;5017517;28;20218;-76
2023/02/10 00:09:04;;;;;;;54.05;32.00;;;;;;;;;;5018573;28;20305;-74
2023/02/10 00:14:19;;;;;;;51.72;30.55;;;;;;;;;;5017815;28;20206;-75
2023/02/10 00:16:47;;;;;;;53.05;30.92;;;;;;;;;;5020207;28;20215;-75
2023/02/10 00:19:15;;;;;;;45.78;26.65;;;;;;;;;;5019849;28;20218;-75
2023/02/10 00:21:43;;;;;;;50.70;29.75;;;;;;;;;;5020943;28;20280;-75
2023/02/10 00:24:10;;;;;;;58.65;33.55;;;;;;;;;;5020702;28;20224;-75
2023/02/10 00:26:46;;;;;;;53.70;31.27;;;;;;;;;;5020517;28;20218;-75
2023/02/10 00:29:17;;;;;;;58.33;31.77;;;;;;;;;;5020251;28;20220;-75
2023/02/10 00:31:47;;;;;;;60.70;32.70;;;;;;;;;;5021251;28;20218;-75
2023/02/10 00:34:15;;;;;;;62.28;35.22;;;;;;;;;;5020207;28;20223;-75
2023/02/10 00:36:43;;;;;;;59.13;32.45;;;;;;;;;;5020935;28;20317;-75
2023/02/10 00:39:14;;;;;;;57.00;32.03;;;;;;;;;;5020199;28;20239;-75
2023/02/10 00:41:41;;;;;;;59.67;32.50;;;;;;;;;;5019863;28;20233;-75
2023/02/10 00:44:15;;;;;;;58.08;31.70;;;;;;;;;;5020123;28;20218;-76
2023/02/10 00:46:43;;;;;;;57.08;30.17;;;;;;;;;;5020405;28;20222;-75
2023/02/10 00:49:13;;;;;;;59.35;32.10;;;;;;;;;;5020690;28;20227;-74
2023/02/10 00:51:41;;;;;;;58.38;31.27;;;;;;;;;;5019706;28;20702;-75
2023/02/10 00:54:09;;;;;;;58.72;32.65;;;;;;;;;;5011821;28;20656;-75
2023/02/10 00:56:36;;;;;;;52.65;29.35;;;;;;;;;;5000985;28;20219;-75
2023/02/10 00:59:04;;;;;;;54.55;29.35;;;;;;;;;;5000968;28;20773;-75
2023/02/10 01:01:35;;;;;;;51.28;29.35;;;;;;;;;;5000036;28;20319;-74
2023/02/10 01:04:04;;;;;;;55.10;32.25;;;;;;;;;;5000950;28;20667;-75
2023/02/10 01:06:33;;;;;;;54.85;30.50;;;;;;;;;;5000450;28;20219;-75
2023/02/10 01:09:01;;;;;;;55.10;30.00;;;;;;;;;;5000370;28;20484;-75
2023/02/10 01:11:31;;;;;;;56.85;32.50;;;;;;;;;;5000803;28;20250;-74
2023/02/10 01:13:59;;;;;;;56.15;30.92;;;;;;;;;;5019107;28;20251;-74
2023/02/10 01:16:26;;;;;;;57.50;33.83;;;;;;;;;;5020292;28;20604;-73
2023/02/10 01:18:54;;;;;;;54.40;30.48;;;;;;;;;;5019195;28;20224;-75
2023/02/10 01:21:24;;;;;;;53.20;28.83;;;;;;;;;;5020316;28;20223;-75
2023/02/10 01:23:53;;;;;;;54.47;29.65;;;;;;;;;;5002670;28;20604;-74
2023/02/10 01:26:21;;;;;;;54.70;30.17;;;;;;;;;;4999952;28;20232;-74
2023/02/10 01:31:38;;;;;;;63.70;35.38;;;;;;;;;;4997568;28;20236;-75
2023/02/10 01:34:05;;;;;;;63.95;34.05;;;;;;;;;;4999464;28;20567;-74
2023/02/10 01:36:33;;;;;;;61.28;33.72;;;;;;;;;;4999793;28;20304;-74
2023/02/10 01:39:15;;;;;;;57.90;32.40;;;;;;;;;;5011150;28;20639;-74
2023/02/10 01:41:45;;;;;;;54.10;31.27;;;;;;;;;;5013786;28;20221;-76
2023/02/10 01:44:28;;;;;;;55.60;30.65;;;;;;;;;;5018927;28;20222;-75
2023/02/10 01:46:57;;;;;;;50.55;27.08;;;;;;;;;;5019239;28;20297;-74
2023/02/10 01:49:30;;;;;;;53.88;30.80;;;;;;;;;;5021004;28;20218;-73
2023/02/10 01:52:03;;;;;;;55.85;32.67;;;;;;;;;;5011546;28;20234;-74
2023/02/10 01:54:36;;;;;;;52.70;29.40;;;;;;;;;;5018705;28;20353;-76
2023/02/10 01:57:06;;;;;;;55.63;31.27;;;;;;;;;;5018015;28;20277;-74
2023/02/10 01:59:35;;;;;;;55.05;30.35;;;;;;;;;;5024238;28;20207;-75
2023/02/10 02:02:06;;;;;;;53.33;28.58;;;;;;;;;;5019418;28;20223;-75
2023/02/10 02:04:34;;;;;;;56.10;30.55;;;;;;;;;;5019203;28;20289;-74
2023/02/10 02:07:02;;;;;;;75.03;31.90;;;;;;;;;;5016996;28;20218;-75
2023/02/10 02:09:31;;;;;;;60.75;34.75;;;;;;;;;;5018177;28;20216;-74
2023/02/10 02:12:00;;;;;;;60.08;32.60;;;;;;;;;;5019274;28;20229;-74
2023/02/10 02:14:32;;;;;;;53.83;30.52;;;;;;;;;;5017992;28;20221;-75
2023/02/10 02:17:04;;;;;;;52.85;29.88;;;;;;;;;;5019393;28;20476;-75
2023/02/10 02:20:39;;;;;;;52.88;29.30;;;;;;;;;;5018457;28;20269;-74
2023/02/10 02:22:49;;;;;;;50.83;27.67;;;;;;;;;;4997078;28;20239;-74
2023/02/10 02:25:22;;;;;;;54.30;30.67;;;;;;;;;;5018762;28;20217;-74
2023/02/10 02:28:00;;;;;;;56.50;32.83;;;;;;;;;;5018720;28;20602;-75
2023/02/10 02:30:43;;;;;;;57.85;30.83;;;;;;;;;;5019380;28;20532;-75
2023/02/10 02:33:13;;;;;;;63.55;32.53;;;;;;;;;;5002115;28;20214;-74
2023/02/10 02:35:45;;;;;;;45.22;25.17;;;;;;;;;;5038179;28;20225;-74
2023/02/10 02:38:12;;;;;;;54.70;29.67;;;;;;;;;;5037943;28;20215;-74
2023/02/10 02:40:40;;;;;;;56.33;32.08;;;;;;;;;;5038763;28;20223;-74
2023/02/10 02:43:12;;;;;;;57.38;30.83;;;;;;;;;;5038748;28;20218;-75
2023/02/10 02:45:45;;;;;;;56.03;31.02;;;;;;;;;;5039323;28;20218;-74
2023/02/10 02:48:20;;;;;;;57.85;33.35;;;;;;;;;;5038126;28;20240;-75
2023/02/10 02:50:52;;;;;;;55.72;30.00;;;;;;;;;;5038467;28;20235;-75
2023/02/10 02:53:26;;;;;;;59.40;32.83;;;;;;;;;;4998831;28;20221;-74
2023/02/10 02:56:00;;;;;;;56.78;31.23;;;;;;;;;;4998163;28;20301;-74
2023/02/10 02:58:32;;;;;;;55.92;30.75;;;;;;;;;;4998530;28;20242;-74
2023/02/10 03:01:05;;;;;;;59.13;32.65;;;;;;;;;;4998381;28;20285;-74
2023/02/10 03:03:35;;;;;;;55.72;31.45;;;;;;;;;;4998314;28;20253;-74
2023/02/10 03:06:03;;;;;;;57.00;31.98;;;;;;;;;;4998465;28;20211;-74
2023/02/10 03:08:33;;;;;;;53.75;30.02;;;;;;;;;;4998362;28;20218;-74
2023/02/10 03:11:00;;;;;;;52.65;29.92;;;;;;;;;;4997642;28;20250;-75
2023/02/10 03:13:28;;;;;;;55.53;32.10;;;;;;;;;;4997154;28;20221;-74
2023/02/10 03:15:55;;;;;;;52.28;29.15;;;;;;;;;;4997898;28;20227;-74
2023/02/10 03:18:26;;;;;;;54.40;31.08;;;;;;;;;;4998595;28;20219;-74
2023/02/10 03:20:55;;;;;;;52.28;29.02;;;;;;;;;;4998350;28;20215;-74
2023/02/10 03:23:22;;;;;;;51.30;29.90;;;;;;;;;;4998461;28;20229;-74
2023/02/10 03:25:50;;;;;;;53.95;29.77;;;;;;;;;;4999252;28;20216;-74
2023/02/10 03:28:18;;;;;;;54.38;30.08;;;;;;;;;;5028385;28;20220;-75
2023/02/10 03:30:48;;;;;;;62.38;33.55;;;;;;;;;;5037742;28;20238;-74
2023/02/10 03:33:16;;;;;;;61.13;32.80;;;;;;;;;;5037142;28;20308;-74
2023/02/10 03:35:44;;;;;;;69.18;33.75;;;;;;;;;;5037886;28;20222;-73
2023/02/10 03:38:18;;;;;;;58.47;30.33;;;;;;;;;;5020057;28;20293;-74
2023/02/10 03:40:45;;;;;;;82.38;36.70;;;;;;;;;;5017330;28;21273;-74
2023/02/10 03:43:13;;;;;;;53.88;29.90;;;;;;;;;;5018188;28;20218;-75
2023/02/10 03:45:41;;;;;;;66.22;33.35;;;;;;;;;;5017449;28;20308;-74
2023/02/10 03:48:08;;;;;;;97.18;38.50;;;;;;;;;;5017758;28;20245;-74
2023/02/10 03:50:36;;;;;;;98.00;36.13;;;;;;;;;;5021039;28;20332;-74
2023/02/10 03:53:04;;;;;;;96.53;34.40;;;;;;;;;;5020933;28;20492;-74
2023/02/10 03:55:34;;;;;;;103.70;37.20;;;;;;;;;;5021254;28;20265;-74
2023/02/10 03:58:06;;;;;;;110.20;38.80;;;;;;;;;;5021153;28;20223;-74
2023/02/10 04:00:33;;;;;;;96.40;37.55;;;;;;;;;;5020624;28;20222;-75
2023/02/10 04:03:01;;;;;;;70.90;33.45;;;;;;;;;;5021516;28;20607;-75
2023/02/10 04:05:29;;;;;;;53.35;30.05;;;;;;;;;;5020587;28;20503;-75
2023/02/10 04:07:57;;;;;;;53.78;30.98;;;;;;;;;;5021250;28;20220;-75
2023/02/10 04:10:25;;;;;;;52.78;31.40;;;;;;;;;;5020942;28;20766;-75
2023/02/10 04:12:58;;;;;;;54.38;30.80;;;;;;;;;;5021436;28;20218;-75
2023/02/10 04:15:26;;;;;;;48.75;28.63;;;;;;;;;;5021787;28;20275;-74
2023/02/10 04:17:56;;;;;;;55.22;31.70;;;;;;;;;;5020787;28;20301;-75
2023/02/10 04:20:33;;;;;;;55.10;32.80;;;;;;;;;;5019671;28;20222;-75
2023/02/10 04:23:01;;;;;;;55.03;31.73;;;;;;;;;;5034364;28;20221;-74
2023/02/10 04:25:29;;;;;;;55.40;30.98;;;;;;;;;;5040508;28;20525;-74
2023/02/10 04:27:58;;;;;;;69.93;31.42;;;;;;;;;;5040283;28;20217;-74
2023/02/10 04:30:25;;;;;;;52.28;30.08;;;;;;;;;;5040572;28;20668;-73
2023/02/10 04:32:53;;;;;;;48.60;26.17;;;;;;;;;;5040042;28;20213;-74
2023/02/10 04:35:21;;;;;;;45.97;27.88;;;;;;;;;;5039641;28;20221;-74
2023/02/10 04:37:51;;;;;;;54.55;30.80;;;;;;;;;;5039854;28;20217;-75
2023/02/10 04:40:19;;;;;;;52.70;30.52;;;;;;;;;;5040003;28;20218;-73
2023/02/10 04:42:46;;;;;;;52.42;29.90;;;;;;;;;;5039581;28;20230;-74
2023/02/10 04:45:16;;;;;;;52.35;29.65;;;;;;;;;;5039786;28;20226;-73
2023/02/10 04:47:43;;;;;;;53.38;32.05;;;;;;;;;;5040045;28;20232;-75
2023/02/10 04:50:11;;;;;;;52.28;29.50;;;;;;;;;;5040110;28;20292;-74
2023/02/10 04:52:38;;;;;;;57.97;33.67;;;;;;;;;;5039215;28;20245;-74
2023/02/10 04:55:07;;;;;;;55.03;32.00;;;;;;;;;;5039676;28;20233;-74
2023/02/10 04:57:35;;;;;;;60.30;33.95;;;;;;;;;;5039603;28;20222;-75
2023/02/10 05:00:02;;;;;;;56.63;31.75;;;;;;;;;;5039512;28;20684;-75
2023/02/10 05:02:32;;;;;;;57.35;33.65;;;;;;;;;;5039006;28;20216;-75
2023/02/10 05:04:59;;;;;;;58.97;32.97;;;;;;;;;;5038408;28;20418;-75
2023/02/10 05:07:27;;;;;;;54.20;30.40;;;;;;;;;;5039544;28;20236;-74
2023/02/10 05:09:58;;;;;;;56.53;32.25;;;;;;;;;;5039837;28;20253;-75
2023/02/10 05:12:26;;;;;;;58.33;33.28;;;;;;;;;;5038937;28;20231;-75
2023/02/10 05:14:53;;;;;;;55.55;31.55;;;;;;;;;;5037136;28;20206;-74
2023/02/10 05:17:24;;;;;;;55.55;32.38;;;;;;;;;;5021839;28;20218;-75
2023/02/10 05:19:56;;;;;;;57.42;34.25;;;;;;;;;;5019375;28;20643;-75
2023/02/10 05:22:29;;;;;;;53.95;31.73;;;;;;;;;;5019121;28;20216;-75
2023/02/10 05:25:02;;;;;;;51.28;29.40;;;;;;;;;;5018637;28;20227;-74
2023/02/10 05:27:41;;;;;;;51.38;29.67;;;;;;;;;;5018765;28;20470;-73
2023/02/10 05:30:13;;;;;;;52.22;30.00;;;;;;;;;;5018724;28;20218;-74
2023/02/10 05:32:41;;;;;;;53.85;31.67;;;;;;;;;;5026248;28;20253;-74
2023/02/10 05:35:11;;;;;;;56.67;32.20;;;;;;;;;;5038679;28;20269;-74
2023/02/10 05:37:39;;;;;;;55.20;34.22;;;;;;;;;;5038165;28;20665;-74
2023/02/10 05:40:07;;;;;;;56.60;29.73;;;;;;;;;;5023185;28;20313;-74
2023/02/10 05:42:35;;;;;;;57.83;31.65;;;;;;;;;;5018153;28;20505;-75
2023/02/10 05:45:30;;;;;;;44.63;26.95;;;;;;;;;;5018205;28;20226;-75
2023/02/10 05:47:58;;;;;;;61.78;34.17;;;;;;;;;;5007314;28;20603;-74
2023/02/10 05:50:36;;;;;;;63.13;34.72;;;;;;;;;;5009871;28;20211;-73
2023/02/10 05:53:08;;;;;;;59.67;34.25;;;;;;;;;;4998574;28;20263;-74
2023/02/10 05:55:45;;;;;;;51.97;31.25;;;;;;;;;;4998138;28;20226;-74
2023/02/10 05:58:13;;;;;;;69.88;33.25;;;;;;;;;;4997591;28;20281;-74
2023/02/10 06:00:41;;;;;;;56.38;32.58;;;;;;;;;;5009510;28;20499;-74
2023/02/10 06:03:09;;;;;;;57.40;32.83;;;;;;;;;;5007506;28;20238;-74
2023/02/10 06:05:45;;;;;;;54.78;32.83;;;;;;;;;;5015754;28;20297;-72
2023/02/10 06:08:21;;;;;;;53.38;32.00;;;;;;;;;;5017183;28;20225;-72
2023/02/10 06:10:48;;;;;;;54.38;31.38;;;;;;;;;;5015836;28;20220;-73
2023/02/10 06:13:16;;;;;;;54.83;33.30;;;;;;;;;;5011596;28;20408;-74
2023/02/10 06:15:44;;;;;;;53.33;31.65;;;;;;;;;;5016126;28;20215;-74
2023/02/10 06:18:12;;;;;;;52.05;29.95;;;;;;;;;;5015717;28;20219;-74
2023/02/10 06:20:46;;;;;;;51.25;30.25;;;;;;;;;;5009598;28;20601;-74
2023/02/10 06:23:14;;;;;;;61.58;32.47;;;;;;;;;;5030851;28;20210;-74
2023/02/10 06:25:42;;;;;;;53.65;32.00;;;;;;;;;;4999748;28;20208;-74
2023/02/10 06:28:10;;;;;;;56.08;36.35;;;;;;;;;;5009862;28;20215;-74
2023/02/10 06:30:38;;;;;;;53.42;32.83;;;;;;;;;;5024726;28;20222;-74
2023/02/10 06:33:06;;;;;;;52.00;31.65;;;;;;;;;;5027969;28;20232;-74
2023/02/10 06:35:36;;;;;;;45.15;29.23;;;;;;;;;;5015711;28;20218;-74
2023/02/10 06:38:06;;;;;;;53.60;32.38;;;;;;;;;;5014276;28;20625;-73
2023/02/10 06:40:34;;;;;;;52.15;32.00;;;;;;;;;;5015489;28;20309;-74
2023/02/10 06:43:07;;;;;;;50.65;31.92;;;;;;;;;;5013497;28;20382;-75
2023/02/10 06:45:35;;;;;;;55.10;33.40;;;;;;;;;;5015347;28;20571;-74
2023/02/10 06:48:06;;;;;;;55.40;33.65;;;;;;;;;;4997746;28;20234;-74
2023/02/10 06:50:34;;;;;;;54.15;33.75;;;;;;;;;;5015091;28;20562;-74
2023/02/10 06:53:03;;;;;;;51.72;30.98;;;;;;;;;;5010644;28;20243;-73
2023/02/10 06:55:38;;;;;;;50.67;31.77;;;;;;;;;;5007651;28;20215;-75
2023/02/10 06:58:12;;;;;;;54.08;32.53;;;;;;;;;;5011938;28;20225;-76
2023/02/10 07:00:42;;;;;;;52.28;31.77;;;;;;;;;;5001788;28;20213;-75
2023/02/10 07:03:16;;;;;;;57.25;34.25;;;;;;;;;;5014591;28;20210;-75
2023/02/10 07:05:44;;;;;;;53.15;31.77;;;;;;;;;;5014651;28;20264;-74
2023/02/10 07:08:13;;;;;;;59.17;34.05;;;;;;;;;;5012640;28;20253;-74
2023/02/10 07:10:43;;;;;;;61.83;33.75;;;;;;;;;;5012489;28;20214;-74
2023/02/10 07:13:12;;;;;;;57.63;33.63;;;;;;;;;;5013172;28;20232;-75
2023/02/10 07:15:43;;;;;;;49.92;30.88;;;;;;;;;;4996745;28;20509;-74
2023/02/10 07:18:14;;;;;;;58.90;36.42;;;;;;;;;;5003979;28;20491;-75
2023/02/10 07:20:42;;;;;;;54.60;33.20;;;;;;;;;;5000427;28;20223;-73
2023/02/10 07:23:16;;;;;;;57.10;34.38;;;;;;;;;;5001803;28;20207;-75
2023/02/10 07:26:05;;;;;;;50.25;32.25;;;;;;;;;;5015659;28;20224;-75
2023/02/10 07:28:57;;;;;;;;;;;;;;;;;;;;;
2023/02/10 07:31:36;;;;;;;54.28;34.33;;;;;;;;;;5018975;28;20223;-75
2023/02/10 07:34:24;;;;;;;55.08;33.95;;;;;;;;;;5019642;28;20225;-74
2023/02/10 07:37:04;;;;;;;58.05;34.17;;;;;;;;;;5019661;28;20226;-74
2023/02/10 07:39:32;;;;;;;54.70;33.53;;;;;;;;;;5021295;28;20257;-74
2023/02/10 07:42:08;;;;;;;57.10;32.78;;;;;;;;;;5021499;28;20749;-74
2023/02/10 07:44:52;;;;;;;51.97;35.47;;;;;;;;;;5022531;28;20229;-74
2023/02/10 07:47:20;;;;;;;55.67;33.95;;;;;;;;;;5015122;28;20297;-72
2023/02/10 07:49:51;;;;;;;57.08;33.13;;;;;;;;;;5000202;28;20230;-74
2023/02/10 07:52:18;;;;;;;58.42;33.20;;;;;;;;;;4999036;28;20239;-74
2023/02/10 07:54:51;;;;;;;52.58;31.30;;;;;;;;;;4998979;28;20729;-74
2023/02/10 07:57:28;;;;;;;54.33;32.67;;;;;;;;;;5003838;28;20222;-75
2023/02/10 08:00:09;;;;;;;56.08;36.67;;;;;;;;;;4999102;28;20234;-72
2023/02/10 08:02:47;;;;;;;78.80;33.53;;;;;;;;;;4999607;28;20216;-75
2023/02/10 08:05:15;;;;;;;54.45;32.97;;;;;;;;;;5010781;28;20242;-74
2023/02/10 08:11:05;;;;;;;57.13;33.20;;;;;;;;;;5005114;28;20302;-73
2023/02/10 08:13:33;;;;;;;62.53;39.13;;;;;;;;;;5013205;28;20253;-73
2023/02/10 08:16:17;;;;;;;57.67;33.83;;;;;;;;;;5013728;28;20218;-75
2023/02/10 08:18:48;;;;;;;66.50;37.13;;;;;;;;;;5010033;28;20255;-72
2023/02/10 08:21:41;;;;;;;66.95;39.75;;;;;;;;;;5009500;28;20215;-73
2023/02/10 08:24:10;;;;;;;63.58;34.22;;;;;;;;;;5005391;28;20271;-73
2023/02/10 08:26:57;;;;;;;56.40;33.25;;;;;;;;;;5007791;28;20639;-74
2023/02/10 08:29:31;;;;;;;56.78;34.88;;;;;;;;;;5005449;28;20214;-73
2023/02/10 08:32:03;;;;;;;60.53;34.85;;;;;;;;;;5017335;28;20230;-74
2023/02/10 08:35:01;;;;;;;61.40;36.83;;;;;;;;;;5021251;28;20211;-73
2023/02/10 08:37:34;;;;;;;55.72;37.05;;;;;;;;;;5008007;28;20251;-73
2023/02/10 08:40:15;;;;;;;55.88;34.53;;;;;;;;;;5018941;28;20527;-74
2023/02/10 08:43:00;;;;;;;59.63;39.40;;;;;;;;;;5017086;28;20260;-73
2023/02/10 08:45:59;;;;;;;;;;;;;;;;;;;;;
2023/02/10 08:48:49;;;;;;;55.45;32.30;;;;;;;;;;5013663;28;20218;-74
2023/02/10 08:51:34;;;;;;;66.60;40.78;;;;;;;;;;5013566;28;20610;-74
2023/02/10 08:54:28;;;;;;;52.80;31.70;;;;;;;;;;5009384;28;20263;-74
2023/02/10 08:57:07;;;;;;;56.22;34.60;;;;;;;;;;4999316;28;20219;-74
2023/02/10 08:59:36;;;;;;;58.95;35.67;;;;;;;;;;5000828;28;20230;-74
2023/02/10 09:02:07;;;;;;;56.60;35.38;;;;;;;;;;5013129;28;20320;-75
2023/02/10 09:08:36;;;;;;;50.95;33.05;;;;;;;;;;5014393;28;20251;-75
2023/02/10 09:11:26;;;;;;;60.72;36.53;;;;;;;;;;5012127;28;20309;-75
2023/02/10 09:14:00;;;;;;;57.35;34.15;;;;;;;;;;5006104;28;20243;-73
2023/02/10 09:16:39;;;;;;;75.40;40.58;;;;;;;;;;5008691;28;20303;-74
2023/02/10 09:19:12;;;;;;;59.17;36.70;;;;;;;;;;5017201;28;20216;-73
2023/02/10 09:22:09;;;;;;;66.20;40.20;;;;;;;;;;5010678;28;20534;-75
2023/02/10 09:27:51;;;;;;;65.20;38.28;;;;;;;;;;5003944;28;20229;-74
2023/02/10 09:30:29;;;;;;;59.63;35.20;;;;;;;;;;5019208;28;20233;-75
2023/02/10 09:33:33;;;;;;;60.45;37.35;;;;;;;;;;5015175;28;20634;-74
2023/02/10 09:55:01;;;;;;;57.42;34.35;;;;;;;;;;5015596;28;20211;-73
2023/02/10 09:58:08;;;;;;;61.65;37.60;;;;;;;;;;5015907;28;20219;-74
2023/02/10 10:01:18;;;;;;;58.00;35.80;;;;;;;;;;5013155;28;20224;-75
2023/02/10 10:04:06;;;;;;;61.97;35.95;;;;;;;;;;5017512;28;20221;-75
2023/02/10 10:06:50;;;;;;;60.80;36.85;;;;;;;;;;5008687;28;20231;-74
2023/02/10 10:09:33;;;;;;;61.00;36.00;;;;;;;;;;5009201;28;20225;-74
2023/02/10 10:12:10;;;;;;;67.20;37.95;;;;;;;;;;5016630;28;20230;-75
2023/02/10 10:15:06;;;;;;;57.22;34.50;;;;;;;;;;5011382;28;20237;-76
2023/02/10 10:17:58;;;;;;;81.75;53.30;;;;;;;;;;4937725;29;20213;-75
2023/02/10 10:20:39;;;;;;;59.45;36.83;;;;;;;;;;4959060;28;20524;-75
2023/02/10 10:23:38;;;;;;;59.65;36.15;;;;;;;;;;5014792;28;20309;-77
2023/02/10 10:26:53;;;;;;;;;;;;;;;;;;;;;
2023/02/10 10:29:38;;;;;;;100.03;42.58;;;;;;;;;;4998453;28;20232;-75
2023/02/10 10:35:17;;;;;;;98.28;48.05;;;;;;;;;;5016210;28;20292;-74
2023/02/10 10:37:52;;;;;;;69.15;38.00;;;;;;;;;;5012394;28;20226;-74
2023/02/10 10:43:16;;;;;;;89.07;43.60;;;;;;;;;;5003550;28;20219;-74
2023/02/10 10:45:49;;;;;;;75.43;38.30;;;;;;;;;;5007952;28;20689;-76
2023/02/10 10:48:49;;;;;;;64.22;34.63;;;;;;;;;;5013741;28;20316;-75
2023/02/10 10:54:40;;;;;;;100.78;45.65;;;;;;;;;;5001184;28;20254;-75
2023/02/10 10:57:38;;;;;;;93.70;43.95;;;;;;;;;;4984445;28;20214;-75
2023/02/10 11:03:21;;;;;;;86.13;39.88;;;;;;;;;;4995832;28;20222;-76
2023/02/10 11:05:59;;;;;;;88.07;40.28;;;;;;;;;;5005699;28;20229;-74
2023/02/10 11:08:33;;;;;;;88.53;41.58;;;;;;;;;;5014209;28;20518;-74
2023/02/10 11:11:04;;;;;;;86.03;43.78;;;;;;;;;;5016628;28;20272;-74
2023/02/10 11:13:47;;;;;;;91.75;45.50;;;;;;;;;;5005038;28;20253;-74
2023/02/10 11:22:31;;;;;;;87.45;43.28;;;;;;;;;;5007834;28;20241;-75
2023/02/10 11:25:05;;;;;;;62.53;36.35;;;;;;;;;;4997217;28;20216;-74
2023/02/10 11:27:33;;;;;;;69.85;32.28;;;;;;;;;;5008308;28;20215;-73
2023/02/10 11:30:27;;;;;;;97.43;47.80;;;;;;;;;;5015213;28;20718;-72
2023/02/10 11:33:07;;;;;;;62.10;25.30;;;;;;;;;;4998333;28;20247;-73
2023/02/10 11:35:41;;;;;;;123.82;43.60;;;;;;;;;;5015634;28;20218;-74
2023/02/10 11:38:27;;;;;;;32.30;17.30;;;;;;;;;;5014027;28;20268;-73
2023/02/10 11:40:57;;;;;;;76.72;29.77;;;;;;;;;;4995304;28;20211;-74
2023/02/10 11:43:32;;;;;;;133.55;46.05;;;;;;;;;;5009161;28;20219;-74
2023/02/10 11:46:03;;;;;;;29.08;14.60;;;;;;;;;;5003322;28;20340;-74
2023/02/10 11:48:48;;;;;;;82.13;33.53;;;;;;;;;;5003773;28;20631;-75
2023/02/10 11:51:25;;;;;;;154.77;47.88;;;;;;;;;;4995711;28;20291;-75
2023/02/10 12:00:17;;;;;;;111.93;39.70;;;;;;;;;;5013992;28;20197;-75
2023/02/10 12:03:06;;;;;;;30.30;11.43;;;;;;;;;;5011357;28;20224;-74
2023/02/10 12:05:48;;;;;;;143.50;46.55;;;;;;;;;;5000100;28;20242;-73
2023/02/10 12:08:23;;;;;;;82.90;29.33;;;;;;;;;;5017847;28;20305;-74
2023/02/10 12:10:55;;;;;;;116.55;41.35;;;;;;;;;;5016511;28;20497;-74
2023/02/10 12:13:32;;;;;;;85.38;30.80;;;;;;;;;;5017965;28;20309;-74
2023/02/10 12:16:12;;;;;;;11.85;9.80;;;;;;;;;;5018921;28;20468;-73
2023/02/10 12:18:54;;;;;;;105.63;39.50;;;;;;;;;;5014056;28;20488;-75
2023/02/10 12:30:57;;;;;;;199.07;61.05;;;;;;;;;;4997490;28;20215;-74
2023/02/10 12:37:08;;;;;;;;;;;;;;;;;;;;;
2023/02/10 12:39:51;;;;;;;138.32;48.33;;;;;;;;;;5020072;28;20226;-75
2023/02/10 12:49:02;;;;;;;200.57;58.85;;;;;;;;;;5018198;28;20699;-74
2023/02/10 12:54:37;;;;;;;85.63;29.25;;;;;;;;;;5017814;28;20241;-74
2023/02/10 12:57:18;;;;;;;11.93;10.38;;;;;;;;;;5013792;28;20218;-75
2023/02/10 13:00:16;;;;;;;71.97;28.13;;;;;;;;;;5013508;28;20226;-73
2023/02/10 13:02:50;;;;;;;40.63;18.08;;;;;;;;;;5011888;28;20217;-75
2023/02/10 13:05:32;;;;;;;20.42;9.15;;;;;;;;;;5008873;28;20637;-74
2023/02/10 13:11:21;;;;;;;66.97;25.38;;;;;;;;;;4987068;28;20227;-75
2023/02/10 13:14:14;;;;;;;166.52;50.85;;;;;;;;;;5005073;28;20242;-74
2023/02/10 13:16:59;;;;;;;109.03;37.47;;;;;;;;;;5004992;28;20277;-74
2023/02/10 13:19:55;;;;;;;121.80;40.13;;;;;;;;;;5005445;28;20224;-74
2023/02/10 13:25:38;;;;;;;32.80;13.23;;;;;;;;;;5002001;28;20215;-74
2023/02/10 13:28:18;;;;;;;164.80;51.53;;;;;;;;;;5009546;28;20223;-74
2023/02/10 13:31:11;;;;;;;34.47;14.65;;;;;;;;;;5006272;28;20223;-74
2023/02/10 13:39:50;;;;;;;17.25;6.43;;;;;;;;;;5004907;28;20311;-73
2023/02/10 13:42:25;;;;;;;131.88;40.47;;;;;;;;;;5016147;28;20214;-73
2023/02/10 13:45:10;;;;;;;162.55;50.72;;;;;;;;;;5004791;28;20620;-73
2023/02/10 13:47:52;;;;;;;142.15;47.35;;;;;;;;;;5013757;28;20215;-74
2023/02/10 13:53:29;;;;;;;171.77;54.08;;;;;;;;;;5017841;28;20492;-74
2023/02/10 13:56:18;;;;;;;134.70;43.90;;;;;;;;;;5002408;28;20215;-74
2023/02/10 13:59:13;;;;;;;190.70;58.78;;;;;;;;;;5001455;28;20306;-74
2023/02/10 14:05:00;;;;;;;11.35;9.55;;;;;;;;;;4984478;28;20277;-73
2023/02/10 14:08:00;;;;;;;188.80;55.70;;;;;;;;;;5011145;28;20364;-74
2023/02/10 14:10:38;;;;;;;96.57;30.83;;;;;;;;;;5009637;28;20281;-75
2023/02/10 14:16:33;;;;;;;96.95;39.20;;;;;;;;;;5005569;28;20214;-74
2023/02/10 14:19:15;;;;;;;76.70;42.65;;;;;;;;;;5002862;28;21685;-73
2023/02/10 14:22:16;;;;;;;;;;;;;;;;;;;;;
2023/02/10 14:27:41;;;;;;;96.15;44.85;;;;;;;;;;5002133;28;20669;-74
2023/02/10 14:30:39;;;;;;;;;;;;;;;;;;;;;
2023/02/10 14:33:22;;;;;;;93.93;43.25;;;;;;;;;;5003374;28;20219;-74
2023/02/10 14:39:19;;;;;;;88.30;36.63;;;;;;;;;;5007251;28;20222;-74
2023/02/10 14:42:15;;;;;;;34.47;15.93;;;;;;;;;;5001572;28;20261;-74
2023/02/10 14:44:49;;;;;;;48.13;24.55;;;;;;;;;;4995930;28;20280;-75
2023/02/10 14:47:34;;;;;;;157.38;52.42;;;;;;;;;;5014634;28;20218;-75
2023/02/10 14:55:58;;;;;;;52.70;23.40;;;;;;;;;;5004281;28;20259;-74
2023/02/10 14:58:40;;;;;;;85.93;41.83;;;;;;;;;;5008893;28;20226;-74
2023/02/10 15:01:24;;;;;;;77.90;33.60;;;;;;;;;;5003554;28;20265;-74
2023/02/10 15:03:57;;;;;;;106.82;42.92;;;;;;;;;;5002157;28;20243;-73
2023/02/10 15:06:26;;;;;;;97.60;40.13;;;;;;;;;;5001326;28;20719;-74
2023/02/10 15:08:55;;;;;;;92.82;34.47;;;;;;;;;;5006449;28;20218;-74
2023/02/10 15:14:22;;;;;;;75.10;39.90;;;;;;;;;;4975476;28;20650;-75
2023/02/10 15:16:51;;;;;;;78.60;43.60;;;;;;;;;;5011744;28;20590;-73
2023/02/10 15:19:21;;;;;;;67.97;34.47;;;;;;;;;;5009033;28;20215;-74
2023/02/10 15:22:14;;;;;;;41.45;23.08;;;;;;;;;;5004901;28;20296;-73
2023/02/10 15:24:42;;;;;;;78.65;28.98;;;;;;;;;;4999432;28;20273;-74
2023/02/10 15:27:34;;;;;;;93.20;38.42;;;;;;;;;;5004390;28;20218;-74
2023/02/10 15:30:20;;;;;;;12.13;7.20;;;;;;;;;;4973909;28;20261;-74
2023/02/10 15:32:51;;;;;;;21.80;12.50;;;;;;;;;;5008870;28;20254;-74
2023/02/10 15:35:36;;;;;;;38.05;17.55;;;;;;;;;;5006659;28;20258;-74
2023/02/10 15:38:08;;;;;;;74.63;27.48;;;;;;;;;;4997504;28;20256;-73
2023/02/10 15:40:43;;;;;;;185.68;56.08;;;;;;;;;;4999813;28;20227;-74
2023/02/10 15:43:25;;;;;;;87.82;26.52;;;;;;;;;;5000787;28;20248;-73
2023/02/10 15:46:17;;;;;;;98.57;39.53;;;;;;;;;;5009444;28;20215;-74
2023/02/10 15:48:46;;;;;;;85.85;38.67;;;;;;;;;;5005662;28;20214;-74
2023/02/10 15:51:17;;;;;;;73.20;36.72;;;;;;;;;;5008068;28;20215;-74
2023/02/10 15:53:46;;;;;;;75.10;37.63;;;;;;;;;;5004020;28;20508;-74
2023/02/10 15:56:14;;;;;;;47.47;27.65;;;;;;;;;;5006966;28;20313;-75
2023/02/10 15:58:44;;;;;;;86.40;43.35;;;;;;;;;;5013732;28;20219;-75
2023/02/10 16:01:15;;;;;;;75.05;39.58;;;;;;;;;;5004361;28;20458;-75
2023/02/10 16:03:44;;;;;;;76.82;38.97;;;;;;;;;;5003306;28;20232;-73
2023/02/10 16:06:14;;;;;;;70.35;37.33;;;;;;;;;;5002381;28;20219;-74
2023/02/10 16:08:47;;;;;;;88.68;41.95;;;;;;;;;;5004250;28;20254;-74
2023/02/10 16:11:16;;;;;;;79.75;43.17;;;;;;;;;;5004291;28;20618;-75
2023/02/10 16:14:05;;;;;;;75.47;39.80;;;;;;;;;;5004519;28;20230;-74
2023/02/10 16:16:43;;;;;;;74.05;37.10;;;;;;;;;;4998804;28;20219;-75
2023/02/10 16:19:11;;;;;;;67.82;34.65;;;;;;;;;;5014305;28;20217;-74
2023/02/10 16:21:55;;;;;;;72.78;38.22;;;;;;;;;;5015090;28;20576;-74
2023/02/10 16:24:31;;;;;;;71.88;36.03;;;;;;;;;;5018700;28;20214;-75
2023/02/10 16:27:04;;;;;;;43.75;23.60;;;;;;;;;;5019444;28;20231;-74
2023/02/10 16:29:34;;;;;;;10.07;5.50;;;;;;;;;;5011920;28;20604;-74
2023/02/10 16:32:20;;;;;;;202.77;61.30;;;;;;;;;;5017550;28;20219;-74
2023/02/10 16:34:48;;;;;;;184.90;56.13;;;;;;;;;;5016972;28;20574;-75
2023/02/10 16:37:20;;;;;;;49.33;14.77;;;;;;;;;;5018271;28;20249;-75
2023/02/10 16:39:50;;;;;;;197.63;60.33;;;;;;;;;;5019498;28;20220;-74
2023/02/10 16:42:18;;;;;;;152.65;52.03;;;;;;;;;;5016791;28;20313;-74
2023/02/10 16:44:46;;;;;;;70.82;25.63;;;;;;;;;;5016755;28;20217;-74
2023/02/10 16:47:49;;;;;;;78.88;27.33;;;;;;;;;;5019909;28;20281;-75
2023/02/10 16:50:26;;;;;;;150.75;30.30;;;;;;;;;;5018942;28;20244;-75
2023/02/10 16:52:54;;;;;;;175.20;54.65;;;;;;;;;;5017813;28;20309;-74
2023/02/10 16:55:24;;;;;;;9.70;8.57;;;;;;;;;;5003881;28;20554;-73
2023/02/10 16:57:53;;;;;;;102.75;35.28;;;;;;;;;;5014589;28;20236;-75
2023/02/10 17:00:31;;;;;;;103.45;35.40;;;;;;;;;;5008019;28;20214;-73
2023/02/10 17:03:02;;;;;;;34.40;15.82;;;;;;;;;;4999189;28;20282;-73
2023/02/10 17:05:32;;;;;;;30.33;15.05;;;;;;;;;;5010466;28;20212;-74